sensor_id;sensor_type;location;lat;lon;timestamp;pressure;altitude;pressure_sealevel;temperature;humidity
27040;BME280;14589;51.578;7.306;2023-09-12T00:01:34;100788.50;;;21.60;91.53
27040;BME280;14589;51.578;7.306;2023-09-12T00:04:05;100787.06;;;21.58;91.15
27040;BME280;14589;51.578;7.306;2023-09-12T00:06:35;100786.22;;;21.57;91.58
27040;BME280;14589;51.578;7.306;2023-09-12T00:09:06;100771.78;;;21.55;91.85
27040;BME280;14589;51.578;7.306;2023-09-12T00:11:36;100760.34;;;21.52;92.16
27040;BME280;14589;51.578;7.306;2023-09-12T00:14:09;100762.88;;;21.53;92.61
27040;BME280;14589;51.578;7.306;2023-09-12T00:16:39;100745.50;;;21.46;93.42
27040;BME280;14589;51.578;7.306;2023-09-12T00:19:10;100749.75;;;21.42;93.50
27040;BME280;14589;51.578;7.306;2023-09-12T00:21:40;100752.75;;;21.41;93.49
27040;BME280;14589;51.578;7.306;2023-09-12T00:24:11;100750.84;;;21.41;94.07
27040;BME280;14589;51.578;7.306;2023-09-12T00:26:41;100748.72;;;21.36;93.29
27040;BME280;14589;51.578;7.306;2023-09-12T00:29:12;100749.38;;;21.32;93.38
27040;BME280;14589;51.578;7.306;2023-09-12T00:31:42;100744.72;;;21.32;94.05
27040;BME280;14589;51.578;7.306;2023-09-12T00:34:16;100740.47;;;21.23;94.30
27040;BME280;14589;51.578;7.306;2023-09-12T00:36:47;100735.41;;;21.20;94.93
27040;BME280;14589;51.578;7.306;2023-09-12T00:39:17;100746.66;;;21.19;94.54
27040;BME280;14589;51.578;7.306;2023-09-12T00:41:48;100751.97;;;21.07;94.72
27040;BME280;14589;51.578;7.306;2023-09-12T00:44:19;100762.81;;;21.02;96.08
27040;BME280;14589;51.578;7.306;2023-09-12T00:46:49;100761.13;;;21.01;96.32
27040;BME280;14589;51.578;7.306;2023-09-12T00:49:21;100772.81;;;20.90;95.96
27040;BME280;14589;51.578;7.306;2023-09-12T00:51:53;100767.72;;;20.93;97.88
27040;BME280;14589;51.578;7.306;2023-09-12T00:54:25;100773.66;;;20.97;97.19
27040;BME280;14589;51.578;7.306;2023-09-12T00:56:55;100803.34;;;20.95;96.86
27040;BME280;14589;51.578;7.306;2023-09-12T00:59:26;100835.16;;;20.97;97.52
27040;BME280;14589;51.578;7.306;2023-09-12T01:01:57;100853.81;;;20.95;97.51
27040;BME280;14589;51.578;7.306;2023-09-12T01:04:28;100867.81;;;21.00;98.31
27040;BME280;14589;51.578;7.306;2023-09-12T01:06:59;100871.22;;;21.03;97.68
27040;BME280;14589;51.578;7.306;2023-09-12T01:09:31;100861.03;;;21.10;97.14
27040;BME280;14589;51.578;7.306;2023-09-12T01:12:02;100826.66;;;21.06;97.30
27040;BME280;14589;51.578;7.306;2023-09-12T01:14:33;100770.03;;;21.03;96.91
27040;BME280;14589;51.578;7.306;2023-09-12T01:17:03;100739.94;;;20.95;97.80
27040;BME280;14589;51.578;7.306;2023-09-12T01:19:33;100735.94;;;20.78;99.63
27040;BME280;14589;51.578;7.306;2023-09-12T01:27:48;100679.16;;;20.64;100.00
27040;BME280;14589;51.578;7.306;2023-09-12T01:30:21;100656.06;;;20.58;100.00
27040;BME280;14589;51.578;7.306;2023-09-12T01:32:53;100669.00;;;20.51;100.00
27040;BME280;14589;51.578;7.306;2023-09-12T01:35:23;100680.47;;;20.48;100.00
27040;BME280;14589;51.578;7.306;2023-09-12T01:37:54;100695.47;;;20.58;100.00
27040;BME280;14589;51.578;7.306;2023-09-12T01:40:33;100691.88;;;20.58;100.00
27040;BME280;14589;51.578;7.306;2023-09-12T01:43:05;100690.59;;;20.67;100.00
27040;BME280;14589;51.578;7.306;2023-09-12T01:45:36;100696.72;;;20.69;100.00
27040;BME280;14589;51.578;7.306;2023-09-12T01:48:07;100696.13;;;20.67;100.00
27040;BME280;14589;51.578;7.306;2023-09-12T01:50:38;100707.97;;;20.68;100.00
27040;BME280;14589;51.578;7.306;2023-09-12T01:53:09;100733.59;;;20.68;100.00
27040;BME280;14589;51.578;7.306;2023-09-12T01:55:43;100723.22;;;20.70;100.00
27040;BME280;14589;51.578;7.306;2023-09-12T01:58:14;100726.44;;;20.67;100.00
27040;BME280;14589;51.578;7.306;2023-09-12T02:00:45;100734.06;;;20.65;100.00
27040;BME280;14589;51.578;7.306;2023-09-12T02:03:15;100724.50;;;20.68;100.00
27040;BME280;14589;51.578;7.306;2023-09-12T02:05:46;100724.28;;;20.63;100.00
27040;BME280;14589;51.578;7.306;2023-09-12T02:08:16;100719.44;;;20.65;100.00
27040;BME280;14589;51.578;7.306;2023-09-12T02:10:47;100730.44;;;20.65;100.00
27040;BME280;14589;51.578;7.306;2023-09-12T02:13:17;100762.25;;;20.67;100.00
27040;BME280;14589;51.578;7.306;2023-09-12T02:15:48;100777.72;;;20.68;100.00
27040;BME280;14589;51.578;7.306;2023-09-12T02:18:19;100793.00;;;20.64;100.00
27040;BME280;14589;51.578;7.306;2023-09-12T02:20:49;100802.31;;;20.70;100.00
27040;BME280;14589;51.578;7.306;2023-09-12T02:23:19;100791.94;;;20.72;100.00
27040;BME280;14589;51.578;7.306;2023-09-12T02:25:50;100793.63;;;20.73;100.00
27040;BME280;14589;51.578;7.306;2023-09-12T02:28:20;100791.94;;;20.78;100.00
27040;BME280;14589;51.578;7.306;2023-09-12T02:30:51;100770.72;;;20.79;100.00
27040;BME280;14589;51.578;7.306;2023-09-12T02:33:21;100760.75;;;20.78;100.00
27040;BME280;14589;51.578;7.306;2023-09-12T02:35:52;100737.22;;;20.69;100.00
27040;BME280;14589;51.578;7.306;2023-09-12T02:38:22;100733.00;;;20.66;100.00
27040;BME280;14589;51.578;7.306;2023-09-12T02:40:53;100720.47;;;20.64;100.00
27040;BME280;14589;51.578;7.306;2023-09-12T02:43:25;100710.13;;;20.52;100.00
27040;BME280;14589;51.578;7.306;2023-09-12T02:45:55;100723.69;;;20.41;100.00
27040;BME280;14589;51.578;7.306;2023-09-12T02:48:26;100726.88;;;20.38;100.00
27040;BME280;14589;51.578;7.306;2023-09-12T02:50:56;100745.94;;;20.39;100.00
27040;BME280;14589;51.578;7.306;2023-09-12T02:53:27;100755.47;;;20.43;100.00
27040;BME280;14589;51.578;7.306;2023-09-12T02:55:57;100738.53;;;20.46;100.00
27040;BME280;14589;51.578;7.306;2023-09-12T02:58:28;100734.72;;;20.47;100.00
27040;BME280;14589;51.578;7.306;2023-09-12T03:00:58;100739.78;;;20.50;100.00
27040;BME280;14589;51.578;7.306;2023-09-12T03:03:29;100731.75;;;20.42;100.00
27040;BME280;14589;51.578;7.306;2023-09-12T03:06:00;100737.03;;;20.44;100.00
27040;BME280;14589;51.578;7.306;2023-09-12T03:08:32;100736.19;;;20.43;100.00
27040;BME280;14589;51.578;7.306;2023-09-12T03:11:03;100758.88;;;20.45;100.00
27040;BME280;14589;51.578;7.306;2023-09-12T03:13:34;100773.28;;;20.41;100.00
27040;BME280;14589;51.578;7.306;2023-09-12T03:16:04;100771.78;;;20.45;100.00
27040;BME280;14589;51.578;7.306;2023-09-12T03:18:35;100798.69;;;20.49;100.00
27040;BME280;14589;51.578;7.306;2023-09-12T03:21:05;100793.44;;;20.54;100.00
27040;BME280;14589;51.578;7.306;2023-09-12T03:23:36;100783.66;;;20.58;100.00
27040;BME280;14589;51.578;7.306;2023-09-12T03:26:06;100779.84;;;20.59;100.00
27040;BME280;14589;51.578;7.306;2023-09-12T03:28:38;100768.19;;;20.64;100.00
27040;BME280;14589;51.578;7.306;2023-09-12T03:31:11;100747.38;;;20.68;100.00
27040;BME280;14589;51.578;7.306;2023-09-12T03:33:43;100720.94;;;20.54;100.00
27040;BME280;14589;51.578;7.306;2023-09-12T03:36:20;100715.63;;;20.39;100.00
27040;BME280;14589;51.578;7.306;2023-09-12T03:38:51;100693.38;;;20.21;100.00
27040;BME280;14589;51.578;7.306;2023-09-12T03:41:22;100658.84;;;20.18;100.00
27040;BME280;14589;51.578;7.306;2023-09-12T03:43:55;100645.72;;;20.07;100.00
27040;BME280;14589;51.578;7.306;2023-09-12T03:46:29;100646.56;;;20.01;100.00
27040;BME280;14589;51.578;7.306;2023-09-12T03:48:59;100659.72;;;19.99;100.00
27040;BME280;14589;51.578;7.306;2023-09-12T03:51:30;100666.06;;;19.93;100.00
27040;BME280;14589;51.578;7.306;2023-09-12T03:54:00;100678.75;;;19.94;100.00
27040;BME280;14589;51.578;7.306;2023-09-12T03:56:31;100682.16;;;19.96;100.00
27040;BME280;14589;51.578;7.306;2023-09-12T03:59:01;100684.91;;;19.96;100.00
27040;BME280;14589;51.578;7.306;2023-09-12T04:01:32;100697.41;;;19.99;100.00
27040;BME280;14589;51.578;7.306;2023-09-12T04:04:03;100688.91;;;20.00;100.00
27040;BME280;14589;51.578;7.306;2023-09-12T04:06:34;100684.47;;;20.06;100.00
27040;BME280;14589;51.578;7.306;2023-09-12T04:09:04;100682.16;;;20.03;100.00
27040;BME280;14589;51.578;7.306;2023-09-12T04:11:35;100675.78;;;19.96;100.00
27040;BME280;14589;51.578;7.306;2023-09-12T04:14:05;100673.88;;;19.90;100.00
27040;BME280;14589;51.578;7.306;2023-09-12T04:16:36;100664.78;;;19.89;100.00
27040;BME280;14589;51.578;7.306;2023-09-12T04:19:06;100667.75;;;19.74;100.00
27040;BME280;14589;51.578;7.306;2023-09-12T04:21:37;100664.13;;;19.67;100.00
27040;BME280;14589;51.578;7.306;2023-09-12T04:24:08;100675.75;;;19.63;100.00
27040;BME280;14589;51.578;7.306;2023-09-12T04:26:38;100671.50;;;19.54;100.00
27040;BME280;14589;51.578;7.306;2023-09-12T04:29:09;100677.22;;;19.52;100.00
27040;BME280;14589;51.578;7.306;2023-09-12T04:31:40;100676.31;;;19.45;100.00
27040;BME280;14589;51.578;7.306;2023-09-12T04:34:11;100663.84;;;19.36;100.00
27040;BME280;14589;51.578;7.306;2023-09-12T04:36:42;100666.38;;;19.37;100.00
27040;BME280;14589;51.578;7.306;2023-09-12T04:39:12;100668.47;;;19.35;100.00
27040;BME280;14589;51.578;7.306;2023-09-12T04:41:43;100689.63;;;19.35;100.00
27040;BME280;14589;51.578;7.306;2023-09-12T04:44:14;100686.44;;;19.25;100.00
27040;BME280;14589;51.578;7.306;2023-09-12T04:46:44;100690.47;;;19.29;100.00
27040;BME280;14589;51.578;7.306;2023-09-12T04:49:16;100683.03;;;19.23;100.00
27040;BME280;14589;51.578;7.306;2023-09-12T04:51:46;100683.88;;;19.17;100.00
27040;BME280;14589;51.578;7.306;2023-09-12T04:54:17;100673.50;;;19.12;100.00
27040;BME280;14589;51.578;7.306;2023-09-12T04:56:47;100667.53;;;19.09;100.00
27040;BME280;14589;51.578;7.306;2023-09-12T04:59:18;100680.22;;;19.10;100.00
27040;BME280;14589;51.578;7.306;2023-09-12T05:01:48;100678.53;;;19.09;100.00
27040;BME280;14589;51.578;7.306;2023-09-12T05:04:19;100675.97;;;19.07;100.00
27040;BME280;14589;51.578;7.306;2023-09-12T05:06:50;100674.31;;;19.06;100.00
27040;BME280;14589;51.578;7.306;2023-09-12T05:09:21;100683.44;;;19.13;100.00
27040;BME280;14589;51.578;7.306;2023-09-12T05:11:51;100671.13;;;19.09;100.00
27040;BME280;14589;51.578;7.306;2023-09-12T05:14:21;100679.38;;;19.09;100.00
27040;BME280;14589;51.578;7.306;2023-09-12T05:16:52;100667.56;;;19.15;100.00
27040;BME280;14589;51.578;7.306;2023-09-12T05:19:23;100672.66;;;19.18;100.00
27040;BME280;14589;51.578;7.306;2023-09-12T05:21:55;100692.34;;;19.28;100.00
27040;BME280;14589;51.578;7.306;2023-09-12T05:24:26;100690.25;;;19.30;100.00
27040;BME280;14589;51.578;7.306;2023-09-12T05:26:56;100697.03;;;19.34;100.00
27040;BME280;14589;51.578;7.306;2023-09-12T05:29:27;100683.09;;;19.36;100.00
27040;BME280;14589;51.578;7.306;2023-09-12T05:31:58;100681.81;;;19.45;100.00
27040;BME280;14589;51.578;7.306;2023-09-12T05:34:29;100681.44;;;19.48;100.00
27040;BME280;14589;51.578;7.306;2023-09-12T05:36:59;100681.03;;;19.51;100.00
27040;BME280;14589;51.578;7.306;2023-09-12T05:39:29;100683.16;;;19.56;100.00
27040;BME280;14589;51.578;7.306;2023-09-12T05:42:00;100699.69;;;19.62;100.00
27040;BME280;14589;51.578;7.306;2023-09-12T05:44:30;100693.34;;;19.62;100.00
27040;BME280;14589;51.578;7.306;2023-09-12T05:47:05;100707.94;;;19.62;100.00
27040;BME280;14589;51.578;7.306;2023-09-12T05:49:37;100737.38;;;19.68;100.00
27040;BME280;14589;51.578;7.306;2023-09-12T05:52:07;100749.84;;;19.64;100.00
27040;BME280;14589;51.578;7.306;2023-09-12T05:54:39;100713.88;;;19.66;100.00
27040;BME280;14589;51.578;7.306;2023-09-12T05:57:11;100703.28;;;19.69;100.00
27040;BME280;14589;51.578;7.306;2023-09-12T05:59:41;100712.84;;;19.73;100.00
27040;BME280;14589;51.578;7.306;2023-09-12T06:02:12;100728.47;;;19.66;100.00
27040;BME280;14589;51.578;7.306;2023-09-12T06:04:42;100743.09;;;19.67;100.00
27040;BME280;14589;51.578;7.306;2023-09-12T06:07:12;100753.44;;;19.65;100.00
27040;BME280;14589;51.578;7.306;2023-09-12T06:09:43;100762.97;;;19.69;100.00
27040;BME280;14589;51.578;7.306;2023-09-12T06:12:13;100747.31;;;19.69;100.00
27040;BME280;14589;51.578;7.306;2023-09-12T06:14:44;100753.25;;;19.73;100.00
27040;BME280;14589;51.578;7.306;2023-09-12T06:17:14;100757.47;;;19.75;100.00
27040;BME280;14589;51.578;7.306;2023-09-12T06:19:44;100758.31;;;19.69;100.00
27040;BME280;14589;51.578;7.306;2023-09-12T06:22:15;100773.59;;;19.78;100.00
27040;BME280;14589;51.578;7.306;2023-09-12T06:24:47;100779.31;;;19.84;100.00
27040;BME280;14589;51.578;7.306;2023-09-12T06:27:18;100783.56;;;19.86;100.00
27040;BME280;14589;51.578;7.306;2023-09-12T06:29:51;100778.47;;;19.83;100.00
27040;BME280;14589;51.578;7.306;2023-09-12T06:32:21;100793.94;;;19.91;100.00
27040;BME280;14589;51.578;7.306;2023-09-12T06:34:52;100775.94;;;19.95;100.00
27040;BME280;14589;51.578;7.306;2023-09-12T06:37:22;100773.19;;;19.95;100.00
27040;BME280;14589;51.578;7.306;2023-09-12T06:39:52;100777.00;;;20.00;100.00
27040;BME280;14589;51.578;7.306;2023-09-12T06:42:23;100781.69;;;20.06;100.00
27040;BME280;14589;51.578;7.306;2023-09-12T06:44:53;100798.44;;;20.05;100.00
27040;BME280;14589;51.578;7.306;2023-09-12T06:47:24;100824.25;;;19.97;100.00
27040;BME280;14589;51.578;7.306;2023-09-12T06:49:54;100876.31;;;19.86;100.00
27040;BME280;14589;51.578;7.306;2023-09-12T06:52:24;100919.50;;;19.85;100.00
27040;BME280;14589;51.578;7.306;2023-09-12T06:54:55;100912.47;;;19.83;100.00
27040;BME280;14589;51.578;7.306;2023-09-12T06:57:25;100912.41;;;19.69;100.00
27040;BME280;14589;51.578;7.306;2023-09-12T06:59:56;100815.25;;;19.62;100.00
27040;BME280;14589;51.578;7.306;2023-09-12T07:02:26;100817.34;;;19.60;100.00
27040;BME280;14589;51.578;7.306;2023-09-12T07:04:57;100854.41;;;19.64;100.00
27040;BME280;14589;51.578;7.306;2023-09-12T07:07:27;100827.91;;;19.50;100.00
27040;BME280;14589;51.578;7.306;2023-09-12T07:09:57;100830.66;;;19.50;100.00
27040;BME280;14589;51.578;7.306;2023-09-12T07:12:29;100784.03;;;19.42;100.00
27040;BME280;14589;51.578;7.306;2023-09-12T07:15:00;100783.81;;;19.44;100.00
27040;BME280;14589;51.578;7.306;2023-09-12T07:17:30;100789.06;;;19.38;100.00
27040;BME280;14589;51.578;7.306;2023-09-12T07:20:01;100800.91;;;19.39;100.00
27040;BME280;14589;51.578;7.306;2023-09-12T07:22:31;100800.28;;;19.37;100.00
27040;BME280;14589;51.578;7.306;2023-09-12T07:25:02;100792.91;;;19.37;100.00
27040;BME280;14589;51.578;7.306;2023-09-12T07:27:32;100794.53;;;19.32;100.00
27040;BME280;14589;51.578;7.306;2023-09-12T07:30:05;100814.88;;;19.31;100.00
27040;BME280;14589;51.578;7.306;2023-09-12T07:32:35;100790.34;;;19.36;100.00
27040;BME280;14589;51.578;7.306;2023-09-12T07:35:06;100768.25;;;19.16;100.00
27040;BME280;14589;51.578;7.306;2023-09-12T07:37:36;100755.53;;;19.15;100.00
27040;BME280;14589;51.578;7.306;2023-09-12T07:40:07;100758.50;;;19.14;100.00
27040;BME280;14589;51.578;7.306;2023-09-12T07:42:41;100763.16;;;19.20;100.00
27040;BME280;14589;51.578;7.306;2023-09-12T07:45:11;100760.66;;;19.18;100.00
27040;BME280;14589;51.578;7.306;2023-09-12T07:47:42;100798.50;;;19.16;100.00
27040;BME280;14589;51.578;7.306;2023-09-12T07:50:12;100785.97;;;19.14;100.00
27040;BME280;14589;51.578;7.306;2023-09-12T07:52:42;100783.88;;;19.16;100.00
27040;BME280;14589;51.578;7.306;2023-09-12T07:55:13;100789.16;;;19.11;100.00
27040;BME280;14589;51.578;7.306;2023-09-12T07:57:43;100787.44;;;19.10;100.00
27040;BME280;14589;51.578;7.306;2023-09-12T08:00:13;100784.03;;;19.08;100.00
27040;BME280;14589;51.578;7.306;2023-09-12T08:02:44;100777.16;;;19.18;100.00
27040;BME280;14589;51.578;7.306;2023-09-12T08:05:14;100783.09;;;19.28;100.00
27040;BME280;14589;51.578;7.306;2023-09-12T08:07:45;100757.13;;;19.31;100.00
27040;BME280;14589;51.578;7.306;2023-09-12T08:10:15;100774.31;;;19.46;100.00
27040;BME280;14589;51.578;7.306;2023-09-12T08:12:46;100781.38;;;19.62;100.00
27040;BME280;14589;51.578;7.306;2023-09-12T08:15:17;100779.28;;;19.70;100.00
27040;BME280;14589;51.578;7.306;2023-09-12T08:17:48;100787.78;;;19.82;100.00
27040;BME280;14589;51.578;7.306;2023-09-12T08:20:22;100790.38;;;20.03;100.00
27040;BME280;14589;51.578;7.306;2023-09-12T08:22:52;100777.03;;;20.07;100.00
27040;BME280;14589;51.578;7.306;2023-09-12T08:25:22;100778.53;;;20.09;100.00
27040;BME280;14589;51.578;7.306;2023-09-12T08:27:54;100787.44;;;20.18;100.00
27040;BME280;14589;51.578;7.306;2023-09-12T08:30:25;100791.63;;;20.01;100.00
27040;BME280;14589;51.578;7.306;2023-09-12T08:32:55;100799.91;;;20.01;100.00
27040;BME280;14589;51.578;7.306;2023-09-12T08:35:26;100799.88;;;19.81;100.00
27040;BME280;14589;51.578;7.306;2023-09-12T08:37:57;100802.81;;;19.79;100.00
27040;BME280;14589;51.578;7.306;2023-09-12T08:40:27;100810.56;;;19.63;100.00
27040;BME280;14589;51.578;7.306;2023-09-12T08:42:59;100798.31;;;19.65;100.00
27040;BME280;14589;51.578;7.306;2023-09-12T08:45:30;100804.91;;;19.71;100.00
27040;BME280;14589;51.578;7.306;2023-09-12T08:48:01;100800.91;;;19.73;100.00
27040;BME280;14589;51.578;7.306;2023-09-12T08:50:33;100800.66;;;19.75;100.00
27040;BME280;14589;51.578;7.306;2023-09-12T08:53:04;100808.75;;;19.90;100.00
27040;BME280;14589;51.578;7.306;2023-09-12T08:55:35;100816.84;;;19.98;100.00
27040;BME280;14589;51.578;7.306;2023-09-12T08:58:05;100829.59;;;20.12;100.00
27040;BME280;14589;51.578;7.306;2023-09-12T09:00:36;100824.31;;;20.17;100.00
27040;BME280;14589;51.578;7.306;2023-09-12T09:03:07;100826.00;;;20.31;100.00
27040;BME280;14589;51.578;7.306;2023-09-12T09:05:40;100812.50;;;20.36;100.00
27040;BME280;14589;51.578;7.306;2023-09-12T09:08:12;100822.25;;;20.58;100.00
27040;BME280;14589;51.578;7.306;2023-09-12T09:10:57;100816.28;;;20.88;100.00
27040;BME280;14589;51.578;7.306;2023-09-12T09:13:27;100806.28;;;21.07;100.00
27040;BME280;14589;51.578;7.306;2023-09-12T09:16:15;100805.88;;;21.23;100.00
27040;BME280;14589;51.578;7.306;2023-09-12T09:18:53;100800.94;;;21.31;100.00
27040;BME280;14589;51.578;7.306;2023-09-12T09:21:26;100809.19;;;21.45;100.00
27040;BME280;14589;51.578;7.306;2023-09-12T09:24:03;100826.91;;;21.68;100.00
27040;BME280;14589;51.578;7.306;2023-09-12T09:26:51;100826.78;;;21.95;100.00
27040;BME280;14589;51.578;7.306;2023-09-12T09:29:22;100827.31;;;22.16;100.00
27040;BME280;14589;51.578;7.306;2023-09-12T09:31:52;100816.00;;;22.25;100.00
27040;BME280;14589;51.578;7.306;2023-09-12T09:34:23;100826.97;;;22.38;100.00
27040;BME280;14589;51.578;7.306;2023-09-12T09:36:55;100827.72;;;22.51;100.00
27040;BME280;14589;51.578;7.306;2023-09-12T09:39:27;100828.84;;;22.75;100.00
27040;BME280;14589;51.578;7.306;2023-09-12T09:42:01;100846.94;;;22.71;98.89
27040;BME280;14589;51.578;7.306;2023-09-12T09:44:32;100844.34;;;23.01;94.63
27040;BME280;14589;51.578;7.306;2023-09-12T09:47:02;100850.13;;;23.18;97.29
27040;BME280;14589;51.578;7.306;2023-09-12T09:49:33;100837.34;;;23.60;97.04
27040;BME280;14589;51.578;7.306;2023-09-12T09:52:07;100838.41;;;23.77;88.88
27040;BME280;14589;51.578;7.306;2023-09-12T09:54:43;100851.78;;;24.28;89.70
27040;BME280;14589;51.578;7.306;2023-09-12T09:57:13;100848.13;;;24.57;88.69
27040;BME280;14589;51.578;7.306;2023-09-12T09:59:48;100842.88;;;24.68;85.00
27040;BME280;14589;51.578;7.306;2023-09-12T10:02:21;100858.06;;;24.77;81.81
27040;BME280;14589;51.578;7.306;2023-09-12T10:04:56;100844.81;;;24.79;80.92
27040;BME280;14589;51.578;7.306;2023-09-12T10:07:27;100849.78;;;25.00;81.51
27040;BME280;14589;51.578;7.306;2023-09-12T10:09:58;100845.59;;;24.97;79.08
27040;BME280;14589;51.578;7.306;2023-09-12T10:12:39;100847.75;;;24.95;77.15
27040;BME280;14589;51.578;7.306;2023-09-12T10:15:12;100851.94;;;24.75;73.81
27040;BME280;14589;51.578;7.306;2023-09-12T10:17:56;100852.28;;;24.67;77.90
27040;BME280;14589;51.578;7.306;2023-09-12T10:20:48;100855.38;;;24.58;77.00
27040;BME280;14589;51.578;7.306;2023-09-12T10:23:30;100850.94;;;24.69;80.10
27040;BME280;14589;51.578;7.306;2023-09-12T10:26:04;100849.38;;;24.62;77.61
27040;BME280;14589;51.578;7.306;2023-09-12T10:28:35;100843.00;;;24.73;79.05
27040;BME280;14589;51.578;7.306;2023-09-12T10:31:07;100845.75;;;24.73;77.17
27040;BME280;14589;51.578;7.306;2023-09-12T10:33:39;100852.09;;;24.91;79.11
27040;BME280;14589;51.578;7.306;2023-09-12T10:36:09;100845.34;;;24.99;76.37
27040;BME280;14589;51.578;7.306;2023-09-12T10:38:44;100838.44;;;25.13;78.05
27040;BME280;14589;51.578;7.306;2023-09-12T10:41:16;100842.78;;;25.32;76.52
27040;BME280;14589;51.578;7.306;2023-09-12T10:43:48;100836.50;;;25.25;73.12
27040;BME280;14589;51.578;7.306;2023-09-12T10:46:22;100831.19;;;25.59;73.40
27040;BME280;14589;51.578;7.306;2023-09-12T10:48:53;100833.91;;;25.82;71.56
27040;BME280;14589;51.578;7.306;2023-09-12T10:51:24;100827.91;;;25.73;71.76
27040;BME280;14589;51.578;7.306;2023-09-12T10:53:55;100827.28;;;25.71;71.72
27040;BME280;14589;51.578;7.306;2023-09-12T10:56:25;100824.56;;;25.60;72.21
27040;BME280;14589;51.578;7.306;2023-09-12T11:01:43;100820.50;;;26.36;68.64
27040;BME280;14589;51.578;7.306;2023-09-12T11:06:57;100818.41;;;26.43;71.85
27040;BME280;14589;51.578;7.306;2023-09-12T11:09:28;100814.22;;;26.40;69.00
27040;BME280;14589;51.578;7.306;2023-09-12T11:12:03;100817.16;;;26.67;66.95
27040;BME280;14589;51.578;7.306;2023-09-12T11:14:33;100811.94;;;26.87;66.50
27040;BME280;14589;51.578;7.306;2023-09-12T11:19:44;100820.16;;;26.94;67.19
27040;BME280;14589;51.578;7.306;2023-09-12T11:22:31;100822.75;;;27.01;68.66
27040;BME280;14589;51.578;7.306;2023-09-12T11:25:03;100815.53;;;27.38;63.93
27040;BME280;14589;51.578;7.306;2023-09-12T11:28:01;100819.69;;;27.79;62.91
27040;BME280;14589;51.578;7.306;2023-09-12T11:30:33;100818.34;;;28.08;62.79
27040;BME280;14589;51.578;7.306;2023-09-12T11:33:05;100814.66;;;28.03;61.80
27040;BME280;14589;51.578;7.306;2023-09-12T11:35:41;100812.53;;;27.83;60.15
27040;BME280;14589;51.578;7.306;2023-09-12T11:38:26;100813.94;;;27.86;58.20
27040;BME280;14589;51.578;7.306;2023-09-12T11:40:58;100808.59;;;28.06;60.18
27040;BME280;14589;51.578;7.306;2023-09-12T11:43:29;100801.22;;;27.95;60.64
27040;BME280;14589;51.578;7.306;2023-09-12T11:46:01;100790.28;;;28.15;60.31
27040;BME280;14589;51.578;7.306;2023-09-12T11:48:32;100801.03;;;28.28;59.67
27040;BME280;14589;51.578;7.306;2023-09-12T11:51:07;100801.31;;;28.27;60.06
27040;BME280;14589;51.578;7.306;2023-09-12T11:53:37;100801.88;;;28.02;57.21
27040;BME280;14589;51.578;7.306;2023-09-12T11:56:08;100802.91;;;27.96;59.32
27040;BME280;14589;51.578;7.306;2023-09-12T11:58:38;100800.38;;;27.94;58.51
27040;BME280;14589;51.578;7.306;2023-09-12T12:01:11;100803.47;;;27.98;59.56
27040;BME280;14589;51.578;7.306;2023-09-12T12:03:43;100803.47;;;28.20;59.85
27040;BME280;14589;51.578;7.306;2023-09-12T12:06:14;100803.47;;;28.20;60.14
27040;BME280;14589;51.578;7.306;2023-09-12T12:08:45;100800.88;;;28.72;58.39
27040;BME280;14589;51.578;7.306;2023-09-12T12:11:16;100805.56;;;28.98;56.88
27040;BME280;14589;51.578;7.306;2023-09-12T12:13:46;100806.84;;;29.22;55.46
27040;BME280;14589;51.578;7.306;2023-09-12T12:16:17;100790.69;;;29.29;55.92
27040;BME280;14589;51.578;7.306;2023-09-12T12:18:48;100797.00;;;29.57;55.49
27040;BME280;14589;51.578;7.306;2023-09-12T12:21:18;100790.38;;;29.73;54.37
27040;BME280;14589;51.578;7.306;2023-09-12T12:23:58;100771.09;;;29.19;54.31
27040;BME280;14589;51.578;7.306;2023-09-12T12:26:30;100783.50;;;29.02;55.28
27040;BME280;14589;51.578;7.306;2023-09-12T12:29:00;100780.56;;;29.18;55.27
27040;BME280;14589;51.578;7.306;2023-09-12T12:31:32;100780.50;;;29.50;55.01
27040;BME280;14589;51.578;7.306;2023-09-12T12:34:02;100782.94;;;29.37;55.04
27040;BME280;14589;51.578;7.306;2023-09-12T12:36:41;100778.59;;;28.77;54.34
27040;BME280;14589;51.578;7.306;2023-09-12T12:39:11;100784.94;;;29.04;54.78
27040;BME280;14589;51.578;7.306;2023-09-12T12:41:42;100775.16;;;29.44;54.55
27040;BME280;14589;51.578;7.306;2023-09-12T12:44:13;100773.03;;;29.19;56.52
27040;BME280;14589;51.578;7.306;2023-09-12T12:46:54;100770.81;;;29.83;54.17
27040;BME280;14589;51.578;7.306;2023-09-12T12:49:24;100766.72;;;30.26;53.16
27040;BME280;14589;51.578;7.306;2023-09-12T12:51:55;100765.91;;;30.46;52.06
27040;BME280;14589;51.578;7.306;2023-09-12T12:54:31;100768.16;;;30.84;49.55
27040;BME280;14589;51.578;7.306;2023-09-12T12:57:02;100772.34;;;31.12;47.17
27040;BME280;14589;51.578;7.306;2023-09-12T12:59:32;100770.66;;;30.96;49.91
27040;BME280;14589;51.578;7.306;2023-09-12T13:02:06;100771.53;;;30.71;50.07
27040;BME280;14589;51.578;7.306;2023-09-12T13:04:37;100753.56;;;30.22;49.71
27040;BME280;14589;51.578;7.306;2023-09-12T13:07:08;100757.53;;;30.76;50.24
27040;BME280;14589;51.578;7.306;2023-09-12T13:09:38;100757.78;;;30.75;50.45
27040;BME280;14589;51.578;7.306;2023-09-12T13:12:08;100751.38;;;30.79;50.42
27040;BME280;14589;51.578;7.306;2023-09-12T13:14:39;100754.59;;;31.37;47.38
27040;BME280;14589;51.578;7.306;2023-09-12T13:17:10;100744.31;;;31.82;46.18
27040;BME280;14589;51.578;7.306;2023-09-12T13:19:40;100734.22;;;31.81;46.18